Time;durP1;ratioP1;P1;durP2;ratioP2;P2;SDS_P1;SDS_P2;PMS_P1;PMS_P2;Temp;Humidity;BMP_temperature;BMP_pressure;BME280_temperature;BME280_humidity;BME280_pressure;Samples;Min_cycle;Max_cycle;Signal;HPM_P1;HPM_P2
2023/12/05 00:01:15;;;;;;;8.13;3.17;;;3.60;1.00;;;;;;5028531;28;20909;-69
2023/12/05 00:03:41;;;;;;;9.40;2.60;;;3.70;1.00;;;;;;5018319;28;20393;-69
2023/12/05 00:06:10;;;;;;;7.43;2.55;;;3.80;1.00;;;;;;5016693;28;20415;-69
2023/12/05 00:08:36;;;;;;;8.48;2.65;;;3.80;1.00;;;;;;5029956;28;20391;-69
2023/12/05 00:11:08;;;;;;;9.55;2.90;;;3.90;1.00;;;;;;5011091;28;20400;-69
2023/12/05 00:13:34;;;;;;;6.82;2.10;;;4.00;1.00;;;;;;5010327;28;20412;-69
2023/12/05 00:16:00;;;;;;;6.35;2.20;;;4.10;1.00;;;;;;5013937;28;20482;-69
2023/12/05 00:18:25;;;;;;;6.50;2.10;;;4.20;1.00;;;;;;5012260;28;20520;-70
2023/12/05 00:20:52;;;;;;;5.93;2.13;;;4.20;1.00;;;;;;5009715;28;20415;-70
2023/12/05 00:23:17;;;;;;;5.70;1.70;;;4.20;1.00;;;;;;5009458;28;20427;-69
2023/12/05 00:25:43;;;;;;;7.15;2.25;;;4.20;1.00;;;;;;5009513;28;20416;-69
2023/12/05 00:28:08;;;;;;;6.93;1.60;;;4.10;1.00;;;;;;5022111;28;20402;-69
2023/12/05 00:30:34;;;;;;;5.22;1.50;;;4.10;1.00;;;;;;5024915;28;20463;-69
2023/12/05 00:33:00;;;;;;;6.40;1.67;;;4.00;1.00;;;;;;5027399;28;20395;-70
2023/12/05 00:35:25;;;;;;;6.20;1.80;;;4.10;1.00;;;;;;5010500;28;20384;-68
2023/12/05 00:37:51;;;;;;;6.50;1.70;;;4.10;1.00;;;;;;5001471;28;20412;-69
2023/12/05 00:40:16;;;;;;;6.13;1.70;;;4.20;1.00;;;;;;5024475;28;20477;-69
2023/12/05 00:42:42;;;;;;;8.50;2.50;;;4.20;1.00;;;;;;5010500;28;20424;-69
2023/12/05 00:45:10;;;;;;;7.47;1.80;;;4.30;1.00;;;;;;5008783;28;20416;-70
2023/12/05 00:47:35;;;;;;;5.22;1.50;;;4.40;1.00;;;;;;5009441;28;20804;-70
2023/12/05 00:50:01;;;;;;;5.60;1.30;;;4.30;1.00;;;;;;5009493;28;20399;-70
2023/12/05 00:52:27;;;;;;;7.80;2.00;;;4.30;1.00;;;;;;5019281;28;20388;-69
2023/12/05 00:54:52;;;;;;;9.63;1.97;;;4.30;1.00;;;;;;5010299;28;20400;-70
2023/12/05 00:57:18;;;;;;;6.78;2.10;;;4.30;1.00;;;;;;5017417;28;20484;-70
2023/12/05 00:59:43;;;;;;;6.90;2.00;;;4.30;1.00;;;;;;5019295;28;20536;-70
2023/12/05 01:02:09;;;;;;;6.85;1.52;;;4.20;1.00;;;;;;5021078;28;20395;-70
2023/12/05 01:04:35;;;;;;;7.60;2.00;;;4.30;1.00;;;;;;5012223;28;20401;-70
2023/12/05 01:07:01;;;;;;;7.00;2.30;;;4.30;1.00;;;;;;5025264;28;20413;-70
2023/12/05 01:09:26;;;;;;;9.63;1.80;;;4.30;1.00;;;;;;5008865;28;20488;-70
2023/12/05 01:11:52;;;;;;;5.50;1.40;;;4.30;1.00;;;;;;5009196;28;20412;-70
2023/12/05 01:14:17;;;;;;;8.25;1.90;;;4.40;1.00;;;;;;5008911;28;20405;-70
2023/12/05 01:16:43;;;;;;;4.80;1.20;;;4.40;1.00;;;;;;5008942;28;20400;-70
2023/12/05 01:19:09;;;;;;;4.88;1.20;;;4.30;1.00;;;;;;5013618;28;20405;-70
2023/12/05 01:21:35;;;;;;;6.50;1.55;;;4.30;1.00;;;;;;5027009;28;20399;-70
2023/12/05 01:24:00;;;;;;;5.10;1.40;;;4.30;1.00;;;;;;5016056;28;20407;-70
2023/12/05 01:26:26;;;;;;;5.10;1.45;;;4.40;1.00;;;;;;5015311;28;20430;-70
2023/12/05 01:28:51;;;;;;;6.17;1.30;;;4.30;1.00;;;;;;5032480;28;20395;-70
2023/12/05 01:31:17;;;;;;;5.95;1.50;;;4.40;1.00;;;;;;5017753;28;20446;-70
2023/12/05 01:33:43;;;;;;;4.97;1.10;;;4.40;1.00;;;;;;5017127;28;20462;-70
2023/12/05 01:36:10;;;;;;;4.40;1.15;;;4.40;1.00;;;;;;5016570;28;20402;-70
2023/12/05 01:38:35;;;;;;;4.40;1.00;;;4.50;1.00;;;;;;5024964;28;20455;-70
2023/12/05 01:41:01;;;;;;;7.10;1.53;;;4.60;1.00;;;;;;5012533;28;20397;-70
2023/12/05 01:43:27;;;;;;;5.40;1.27;;;4.60;1.00;;;;;;5012705;28;20397;-70
2023/12/05 01:45:53;;;;;;;5.60;1.87;;;4.60;1.00;;;;;;5013892;28;20470;-70
2023/12/05 01:48:20;;;;;;;6.30;1.35;;;4.70;1.00;;;;;;5026663;28;20437;-70
2023/12/05 01:50:46;;;;;;;5.17;1.33;;;4.80;1.00;;;;;;5012254;28;20967;-70
2023/12/05 01:53:14;;;;;;;5.10;1.30;;;4.90;1.00;;;;;;5012843;28;20888;-70
2023/12/05 01:55:42;;;;;;;5.83;1.50;;;5.00;1.00;;;;;;5012571;28;20495;-70
2023/12/05 01:58:11;;;;;;;6.07;1.40;;;4.90;1.00;;;;;;5017291;28;20386;-70
2023/12/05 02:00:38;;;;;;;6.60;1.93;;;4.90;1.00;;;;;;5031740;28;20411;-70
2023/12/05 02:03:04;;;;;;;5.90;1.48;;;4.90;1.00;;;;;;5032001;28;20851;-70
2023/12/05 02:05:30;;;;;;;5.43;1.50;;;4.90;1.00;;;;;;5021532;28;20456;-70
2023/12/05 02:07:57;;;;;;;6.13;1.60;;;4.80;1.00;;;;;;5025752;28;20921;-70
2023/12/05 02:10:23;;;;;;;5.13;1.58;;;4.80;1.00;;;;;;5015536;28;20475;-69
2023/12/05 02:12:49;;;;;;;5.72;1.65;;;4.80;1.00;;;;;;5027616;28;20428;-69
2023/12/05 02:15:14;;;;;;;5.43;1.47;;;4.80;1.00;;;;;;5012204;28;20431;-69
2023/12/05 02:17:56;;;;;;;5.70;1.30;;;4.70;1.00;;;;;;5028429;28;20386;-69
2023/12/05 02:20:30;;;;;;;5.40;1.50;;;4.60;1.00;;;;;;5015160;28;20393;-69
2023/12/05 02:23:12;;;;;;;7.00;1.60;;;4.50;1.00;;;;;;5029054;28;20475;-70
2023/12/05 02:25:56;;;;;;;6.15;1.80;;;4.60;1.00;;;;;;5018923;28;20511;-70
2023/12/05 02:28:24;;;;;;;8.20;1.85;;;4.60;1.00;;;;;;5017473;28;20439;-70
2023/12/05 02:30:49;;;;;;;6.10;1.80;;;4.60;1.00;;;;;;5011302;28;20401;-70
2023/12/05 02:33:15;;;;;;;7.20;2.33;;;4.60;1.00;;;;;;5030410;28;20486;-70
2023/12/05 02:35:41;;;;;;;6.55;2.10;;;4.60;1.00;;;;;;5013130;28;20395;-70
2023/12/05 02:38:24;;;;;;;6.95;1.98;;;4.60;1.00;;;;;;5026907;28;20412;-70
2023/12/05 02:41:00;;;;;;;7.07;2.25;;;4.50;1.00;;;;;;5011774;28;20768;-70
2023/12/05 02:43:34;;;;;;;7.20;1.95;;;4.50;1.00;;;;;;5015306;28;20395;-70
2023/12/05 02:46:01;;;;;;;8.90;2.55;;;4.40;1.00;;;;;;5022231;28;20414;-70
2023/12/05 02:48:27;;;;;;;6.00;1.80;;;4.40;1.00;;;;;;5030935;28;20793;-70
2023/12/05 02:50:53;;;;;;;6.47;2.10;;;4.30;1.00;;;;;;5013093;28;20483;-70
2023/12/05 02:53:18;;;;;;;7.27;1.90;;;4.30;1.00;;;;;;5011440;28;20530;-70
2023/12/05 02:55:46;;;;;;;7.37;1.87;;;4.20;1.00;;;;;;5011599;28;20393;-70
2023/12/05 02:58:12;;;;;;;6.88;2.40;;;4.10;1.00;;;;;;5011042;28;20463;-70
2023/12/05 03:00:37;;;;;;;6.10;1.67;;;4.10;1.00;;;;;;5011139;28;20416;-70
2023/12/05 03:03:03;;;;;;;7.45;2.00;;;4.10;1.00;;;;;;5027150;28;20463;-70
2023/12/05 03:05:28;;;;;;;6.00;1.83;;;4.00;1.00;;;;;;5012721;28;20501;-70
2023/12/05 03:07:54;;;;;;;6.60;2.20;;;3.90;1.00;;;;;;5029758;28;20387;-69
2023/12/05 03:10:19;;;;;;;5.60;1.53;;;3.80;1.00;;;;;;5030061;28;20425;-69
2023/12/05 03:12:45;;;;;;;6.20;2.20;;;3.80;1.00;;;;;;5030560;28;20403;-69
2023/12/05 03:15:10;;;;;;;7.95;2.60;;;3.70;1.00;;;;;;5028413;28;20483;-69
2023/12/05 03:17:36;;;;;;;7.10;2.63;;;3.90;1.00;;;;;;5023294;28;20395;-68
2023/12/05 03:20:02;;;;;;;7.53;2.50;;;4.10;1.00;;;;;;5020941;28;20389;-69
2023/12/05 03:22:28;;;;;;;7.70;2.50;;;4.30;1.00;;;;;;5010626;28;20469;-69
2023/12/05 03:24:53;;;;;;;8.55;3.00;;;4.40;1.00;;;;;;5021694;28;20427;-69
2023/12/05 03:27:19;;;;;;;7.07;2.50;;;4.50;1.00;;;;;;5030050;28;20771;-69
2023/12/05 03:29:44;;;;;;;7.13;2.50;;;4.60;1.00;;;;;;5029814;28;20395;-69
2023/12/05 03:32:10;;;;;;;8.60;2.90;;;4.50;1.00;;;;;;5030264;28;20388;-69
2023/12/05 03:34:35;;;;;;;8.00;3.20;;;4.50;1.00;;;;;;5029186;28;20415;-69
2023/12/05 03:37:01;;;;;;;7.23;2.20;;;4.50;1.00;;;;;;5029788;28;20779;-70
2023/12/05 03:39:27;;;;;;;6.33;2.13;;;4.60;1.00;;;;;;5010705;28;20774;-70
2023/12/05 03:41:53;;;;;;;7.40;2.60;;;4.60;1.00;;;;;;5024784;28;20470;-71
2023/12/05 03:44:18;;;;;;;10.18;3.22;;;4.60;1.00;;;;;;5023592;28;20512;-71
2023/12/05 03:46:43;;;;;;;7.63;2.73;;;4.60;1.00;;;;;;5019681;28;20473;-71
2023/12/05 03:49:09;;;;;;;8.30;3.10;;;4.60;1.00;;;;;;5028850;28;20391;-70
2023/12/05 03:51:34;;;;;;;7.57;2.30;;;4.50;1.00;;;;;;5029499;28;20756;-69
2023/12/05 03:54:00;;;;;;;7.77;2.60;;;4.60;1.00;;;;;;5029619;28;20383;-69
2023/12/05 03:56:25;;;;;;;7.22;2.50;;;4.50;1.00;;;;;;5022192;28;20392;-69
2023/12/05 03:58:51;;;;;;;7.07;2.77;;;4.50;1.00;;;;;;5010695;28;20856;-69
2023/12/05 04:01:17;;;;;;;7.10;2.33;;;4.40;1.00;;;;;;5009996;28;20393;-70
2023/12/05 04:03:42;;;;;;;6.93;1.90;;;4.40;1.00;;;;;;5009943;28;20396;-69
2023/12/05 04:06:08;;;;;;;7.75;2.10;;;4.30;1.00;;;;;;5009349;28;20486;-69
2023/12/05 04:08:34;;;;;;;6.97;2.27;;;4.40;1.00;;;;;;5013779;28;20574;-69
2023/12/05 04:10:59;;;;;;;8.73;2.63;;;4.40;1.00;;;;;;5029757;28;20387;-69
2023/12/05 04:13:25;;;;;;;8.03;2.20;;;4.40;1.00;;;;;;5029081;28;20395;-69
2023/12/05 04:15:51;;;;;;;6.53;2.03;;;4.20;1.00;;;;;;5029383;28;20977;-69
2023/12/05 04:18:16;;;;;;;8.13;2.20;;;4.20;1.00;;;;;;5029278;28;20406;-69
2023/12/05 04:20:42;;;;;;;6.90;1.90;;;4.20;1.00;;;;;;5023721;28;20393;-69
2023/12/05 04:23:07;;;;;;;5.88;1.75;;;4.20;1.00;;;;;;5009620;28;20800;-70
2023/12/05 04:25:33;;;;;;;8.20;2.20;;;4.30;1.00;;;;;;5016999;28;20430;-70
2023/12/05 04:27:58;;;;;;;7.50;2.10;;;4.20;1.00;;;;;;5026976;28;20894;-70
2023/12/05 04:30:24;;;;;;;6.18;1.92;;;4.30;1.00;;;;;;5013348;28;20585;-70
2023/12/05 04:32:49;;;;;;;5.32;1.85;;;4.40;1.00;;;;;;5010532;28;20409;-70
2023/12/05 04:35:16;;;;;;;7.30;2.10;;;4.40;1.00;;;;;;5024935;28;20419;-70
2023/12/05 04:37:41;;;;;;;6.93;2.17;;;4.50;1.00;;;;;;5028938;28;20498;-70
2023/12/05 04:40:08;;;;;;;7.40;2.10;;;4.40;1.00;;;;;;5025992;28;20486;-70
2023/12/05 04:42:34;;;;;;;6.57;1.90;;;4.50;1.00;;;;;;5004710;28;20424;-70
2023/12/05 04:44:59;;;;;;;8.13;2.30;;;4.50;1.00;;;;;;5004250;28;20942;-70
2023/12/05 04:47:25;;;;;;;7.53;2.13;;;4.50;1.00;;;;;;4998051;28;20448;-70
2023/12/05 04:49:50;;;;;;;8.82;2.28;;;4.50;1.00;;;;;;5006226;28;20417;-70
2023/12/05 04:52:16;;;;;;;5.10;1.60;;;4.40;1.00;;;;;;5008697;28;20440;-69
2023/12/05 04:54:41;;;;;;;6.00;1.65;;;4.40;1.00;;;;;;5005730;28;20416;-70
2023/12/05 04:57:07;;;;;;;8.27;2.13;;;4.40;1.00;;;;;;4993282;28;20410;-69
2023/12/05 04:59:32;;;;;;;6.73;2.10;;;4.30;1.00;;;;;;5005699;28;20903;-69
2023/12/05 05:01:58;;;;;;;10.65;2.40;;;4.40;1.00;;;;;;5010611;28;20407;-69
2023/12/05 05:04:23;;;;;;;6.77;2.10;;;4.40;1.00;;;;;;5003079;28;20406;-69
2023/12/05 05:06:49;;;;;;;7.00;2.10;;;4.40;1.00;;;;;;5002165;28;20459;-69
2023/12/05 05:09:15;;;;;;;5.85;1.90;;;4.40;1.00;;;;;;5010050;28;20793;-70
2023/12/05 05:11:40;;;;;;;10.40;2.30;;;4.40;1.00;;;;;;5006268;28;20408;-70
2023/12/05 05:14:06;;;;;;;7.07;1.90;;;4.40;1.00;;;;;;5000345;28;20425;-69
2023/12/05 05:16:32;;;;;;;6.90;2.07;;;4.40;1.00;;;;;;4998953;28;20448;-69
2023/12/05 05:18:59;;;;;;;5.40;1.20;;;4.30;1.00;;;;;;5001586;28;20475;-70
2023/12/05 05:21:24;;;;;;;6.15;1.73;;;4.40;1.00;;;;;;4996408;28;20423;-69
2023/12/05 05:23:50;;;;;;;5.90;1.80;;;4.30;1.00;;;;;;5006309;28;20400;-70
2023/12/05 05:26:15;;;;;;;6.72;1.52;;;4.40;1.00;;;;;;4990579;28;20480;-69
2023/12/05 05:28:41;;;;;;;6.13;1.60;;;4.30;1.00;;;;;;5003769;28;20421;-70
2023/12/05 05:31:07;;;;;;;9.05;1.88;;;4.30;1.00;;;;;;5007470;28;20666;-69
2023/12/05 05:33:32;;;;;;;8.10;2.20;;;4.40;1.00;;;;;;5011030;28;20418;-69
2023/12/05 05:35:58;;;;;;;6.90;1.60;;;4.40;1.00;;;;;;5002236;28;20464;-69
2023/12/05 05:38:23;;;;;;;5.60;1.63;;;4.40;1.00;;;;;;5001770;28;20514;-69
2023/12/05 05:40:49;;;;;;;10.07;1.60;;;4.40;1.00;;;;;;5002794;28;20423;-70
2023/12/05 05:43:15;;;;;;;6.37;1.97;;;4.40;1.00;;;;;;4988879;28;20446;-70
2023/12/05 05:45:40;;;;;;;8.68;1.88;;;4.40;1.00;;;;;;4988840;28;20770;-70
2023/12/05 05:48:05;;;;;;;9.60;2.00;;;4.40;1.00;;;;;;5000662;28;20395;-70
2023/12/05 05:50:31;;;;;;;4.65;1.10;;;4.40;1.00;;;;;;5028235;28;20431;-69
2023/12/05 05:52:57;;;;;;;6.20;1.40;;;4.40;1.00;;;;;;5028131;28;20399;-69
2023/12/05 05:55:26;;;;;;;4.43;0.90;;;4.50;1.00;;;;;;5028301;28;20387;-75
2023/12/05 05:57:52;;;;;;;9.93;1.70;;;4.50;1.00;;;;;;5002381;28;20406;-73
2023/12/05 06:00:18;;;;;;;5.20;1.20;;;4.50;1.00;;;;;;5008581;28;20380;-73
2023/12/05 06:02:44;;;;;;;5.00;1.43;;;4.60;1.00;;;;;;5006286;28;20405;-73
2023/12/05 06:05:10;;;;;;;6.05;1.48;;;4.50;1.00;;;;;;5008205;28;20459;-69
2023/12/05 06:07:36;;;;;;;6.80;1.63;;;4.50;1.00;;;;;;5012043;28;20791;-69
2023/12/05 06:10:02;;;;;;;5.13;1.43;;;4.50;1.00;;;;;;5011119;28;20889;-69
2023/12/05 06:12:28;;;;;;;5.43;1.10;;;4.50;1.00;;;;;;5022025;28;20400;-69
2023/12/05 06:14:54;;;;;;;5.33;1.30;;;4.60;1.00;;;;;;5031180;28;20720;-69
2023/12/05 06:17:19;;;;;;;6.03;1.50;;;4.60;1.00;;;;;;5030007;28;20392;-69
2023/12/05 06:19:45;;;;;;;5.33;1.47;;;4.60;1.00;;;;;;5030423;28;20388;-69
2023/12/05 06:22:11;;;;;;;8.82;1.60;;;4.60;1.00;;;;;;5030810;28;20390;-69
2023/12/05 06:24:36;;;;;;;5.40;1.50;;;4.60;1.00;;;;;;5031828;28;20439;-70
2023/12/05 06:27:02;;;;;;;10.40;1.52;;;4.60;1.00;;;;;;5030830;28;20426;-70
2023/12/05 06:29:28;;;;;;;4.57;1.25;;;4.50;1.00;;;;;;5031253;28;20534;-70
2023/12/05 06:31:53;;;;;;;5.53;1.30;;;4.50;1.00;;;;;;5019276;28;20800;-70
2023/12/05 06:34:19;;;;;;;5.15;1.42;;;4.60;1.00;;;;;;5011397;28;20408;-70
2023/12/05 06:36:44;;;;;;;8.33;1.70;;;4.50;1.00;;;;;;5011231;28;20623;-70
2023/12/05 06:39:10;;;;;;;5.00;1.30;;;4.50;1.00;;;;;;5011672;28;20820;-70
2023/12/05 06:41:36;;;;;;;7.07;1.70;;;4.50;1.00;;;;;;5011827;28;20869;-70
2023/12/05 06:44:05;;;;;;;4.82;1.23;;;4.50;1.00;;;;;;5011559;28;20389;-70
2023/12/05 06:46:30;;;;;;;6.90;1.17;;;4.50;1.00;;;;;;5011386;28;20428;-68
2023/12/05 06:48:57;;;;;;;4.40;0.70;;;4.40;1.00;;;;;;5010984;28;20400;-69
2023/12/05 06:51:23;;;;;;;10.00;2.30;;;4.50;1.00;;;;;;5011112;28;20900;-70
2023/12/05 06:53:48;;;;;;;5.28;1.00;;;4.40;1.00;;;;;;5009888;28;20436;-70
2023/12/05 06:56:16;;;;;;;6.13;1.53;;;4.40;1.00;;;;;;5011149;28;20765;-69
2023/12/05 06:58:42;;;;;;;5.25;1.05;;;4.50;1.00;;;;;;5012410;28;20419;-69
2023/12/05 07:01:08;;;;;;;5.82;1.17;;;4.50;1.00;;;;;;5011443;28;20392;-69
2023/12/05 07:03:33;;;;;;;5.32;1.20;;;4.60;1.00;;;;;;5009268;28;20393;-70
2023/12/05 07:05:59;;;;;;;4.20;1.10;;;4.60;1.00;;;;;;4992514;28;20430;-69
2023/12/05 07:08:25;;;;;;;5.37;1.20;;;4.60;1.00;;;;;;4987431;28;20883;-69
2023/12/05 07:10:50;;;;;;;6.10;1.70;;;4.50;1.00;;;;;;4991604;28;20429;-69
2023/12/05 07:13:16;;;;;;;5.00;1.37;;;4.60;1.00;;;;;;4991343;28;20391;-70
2023/12/05 07:15:42;;;;;;;7.60;1.38;;;4.60;1.00;;;;;;4991141;28;20782;-69
2023/12/05 07:18:08;;;;;;;5.37;0.97;;;4.60;1.00;;;;;;4991178;28;20426;-70
2023/12/05 07:20:34;;;;;;;5.40;1.60;;;4.50;1.00;;;;;;4991663;28;20424;-69
2023/12/05 07:23:00;;;;;;;5.37;1.40;;;4.50;1.00;;;;;;4991023;28;20957;-70
2023/12/05 07:25:26;;;;;;;4.78;1.30;;;4.50;1.00;;;;;;4997525;28;20776;-70
2023/12/05 07:27:52;;;;;;;5.45;1.30;;;4.60;1.00;;;;;;5010735;28;20396;-70
2023/12/05 07:30:18;;;;;;;4.90;1.23;;;4.50;1.00;;;;;;5010460;28;20884;-69
2023/12/05 07:32:43;;;;;;;5.70;1.40;;;4.60;1.00;;;;;;5010442;28;20393;-69
2023/12/05 07:35:09;;;;;;;4.70;1.20;;;4.70;1.00;;;;;;5010363;28;20488;-70
2023/12/05 07:37:34;;;;;;;6.15;2.10;;;4.60;1.00;;;;;;5010472;28;20777;-70
2023/12/05 07:40:00;;;;;;;6.23;1.07;;;4.60;1.00;;;;;;4992614;28;20400;-70
2023/12/05 07:42:25;;;;;;;7.20;1.42;;;4.70;1.00;;;;;;5002539;28;20771;-70
2023/12/05 07:44:51;;;;;;;8.00;1.13;;;4.80;1.00;;;;;;4990532;28;20449;-70
2023/12/05 07:47:17;;;;;;;7.30;1.30;;;4.80;1.00;;;;;;4991017;28;20486;-70
2023/12/05 07:49:44;;;;;;;6.83;1.50;;;4.90;1.00;;;;;;4990727;28;20391;-70
2023/12/05 07:52:10;;;;;;;7.75;1.15;;;5.00;1.00;;;;;;4990491;28;20406;-70
2023/12/05 07:54:35;;;;;;;4.50;0.90;;;5.00;1.00;;;;;;4992638;28;20413;-70
2023/12/05 07:57:01;;;;;;;5.55;1.10;;;5.00;1.00;;;;;;5010329;28;20468;-70
2023/12/05 07:59:26;;;;;;;4.70;1.00;;;5.10;1.00;;;;;;5010368;28;20513;-70
2023/12/05 08:01:52;;;;;;;8.20;1.60;;;5.20;1.00;;;;;;5010117;28;20408;-70
2023/12/05 08:04:17;;;;;;;5.57;1.40;;;5.30;1.00;;;;;;5009845;28;20489;-71
2023/12/05 08:06:43;;;;;;;5.53;1.30;;;5.50;1.00;;;;;;5009933;28;20496;-71
2023/12/05 08:09:09;;;;;;;5.00;0.70;;;5.50;1.00;;;;;;5009898;28;20906;-70
2023/12/05 08:11:35;;;;;;;7.93;1.30;;;5.60;1.00;;;;;;5010844;28;20396;-71
2023/12/05 08:14:01;;;;;;;6.65;1.25;;;5.70;1.00;;;;;;5010049;28;20738;-71
2023/12/05 08:16:27;;;;;;;4.32;0.90;;;5.70;1.00;;;;;;5002776;28;20403;-71
2023/12/05 08:18:52;;;;;;;4.70;1.10;;;5.60;1.00;;;;;;4989868;28;20395;-71
2023/12/05 08:21:18;;;;;;;6.60;0.90;;;5.70;1.00;;;;;;4990016;28;20395;-71
2023/12/05 08:23:43;;;;;;;5.20;1.10;;;5.80;1.00;;;;;;4989927;28;20743;-71
2023/12/05 08:26:09;;;;;;;5.40;1.43;;;5.90;1.00;;;;;;4990226;28;20521;-71
2023/12/05 08:28:36;;;;;;;6.00;1.30;;;6.00;1.00;;;;;;5001537;28;20436;-71
2023/12/05 08:31:01;;;;;;;4.50;0.90;;;6.30;1.00;;;;;;5009717;28;20469;-71
2023/12/05 08:33:27;;;;;;;6.97;1.50;;;6.30;1.00;;;;;;5009675;28;20948;-71
2023/12/05 08:35:52;;;;;;;4.80;1.00;;;6.50;1.00;;;;;;5009194;28;20432;-71
2023/12/05 08:38:18;;;;;;;4.70;0.90;;;6.50;1.00;;;;;;5016568;28;20550;-72
2023/12/05 08:40:43;;;;;;;4.90;1.05;;;6.70;1.00;;;;;;5009424;28;20393;-70
2023/12/05 08:43:10;;;;;;;4.67;0.77;;;6.80;1.00;;;;;;5009438;28;20397;-70
2023/12/05 08:45:35;;;;;;;5.55;1.10;;;6.90;1.00;;;;;;5009266;28;20427;-69
2023/12/05 08:48:03;;;;;;;5.97;0.90;;;7.70;1.00;;;;;;5017541;28;22563;-69
2023/12/05 08:50:28;;;;;;;6.15;1.05;;;9.00;1.00;;;;;;5012637;28;20487;-69
2023/12/05 08:52:54;;;;;;;4.83;0.97;;;9.50;1.00;;;;;;5023552;28;20395;-70
2023/12/05 08:55:20;;;;;;;4.50;0.80;;;10.30;1.00;;;;;;5014489;28;20761;-70
2023/12/05 08:57:45;;;;;;;5.10;1.00;;;11.50;1.00;;;;;;5009106;28;20476;-69
2023/12/05 09:00:11;;;;;;;10.70;1.00;;;12.00;1.00;;;;;;5009042;28;20956;-70
2023/12/05 09:02:37;;;;;;;6.50;1.17;;;12.10;1.00;;;;;;5009906;28;20396;-71
2023/12/05 09:05:03;;;;;;;4.78;1.10;;;12.40;1.00;;;;;;5009194;28;20408;-71
2023/12/05 09:07:30;;;;;;;6.50;0.90;;;12.30;1.00;;;;;;5009667;28;20404;-71
2023/12/05 09:09:55;;;;;;;5.78;1.13;;;12.00;1.00;;;;;;5009094;28;20435;-70
2023/12/05 09:12:22;;;;;;;4.90;0.80;;;11.40;1.00;;;;;;5008823;28;20392;-69
2023/12/05 09:14:47;;;;;;;6.22;1.20;;;10.50;1.00;;;;;;5009008;28;20469;-70
2023/12/05 09:17:15;;;;;;;4.47;0.77;;;10.70;1.00;;;;;;5002363;28;20908;-71
2023/12/05 09:19:41;;;;;;;5.43;1.17;;;;;;;;;;5010399;28;20852;-71
2023/12/05 09:22:07;;;;;;;4.60;0.80;;;;;;;;;;5016260;28;20379;-71
2023/12/05 09:24:33;;;;;;;4.80;0.80;;;;;;;;;;5029289;28;20386;-71
2023/12/05 09:26:59;;;;;;;5.28;0.90;;;;;;;;;;5032940;28;20530;-71
2023/12/05 09:29:27;;;;;;;6.40;0.82;;;;;;;;;;5025991;28;20445;-71
2023/12/05 09:31:52;;;;;;;5.80;0.90;;;11.80;1.00;;;;;;5043448;28;20890;-70
2023/12/05 09:34:18;;;;;;;5.10;0.77;;;11.60;1.00;;;;;;5028152;28;20437;-70
2023/12/05 09:36:44;;;;;;;4.63;0.63;;;11.50;1.00;;;;;;5028441;28;20464;-70
2023/12/05 09:39:10;;;;;;;4.68;0.80;;;11.20;1.00;;;;;;5022962;28;20400;-70
2023/12/05 09:41:45;;;;;;;4.50;0.70;;;11.50;1.00;;;;;;5012867;28;20752;-70
2023/12/05 09:44:11;;;;;;;7.00;1.20;;;11.10;1.00;;;;;;5012680;28;20869;-69
2023/12/05 09:46:38;;;;;;;4.80;0.77;;;11.10;1.00;;;;;;5023201;28;20453;-70
2023/12/05 09:49:08;;;;;;;4.65;0.70;;;11.50;1.00;;;;;;5031122;28;20744;-70
2023/12/05 09:51:35;;;;;;;4.97;0.70;;;11.60;1.00;;;;;;5032538;28;20879;-71
2023/12/05 09:54:01;;;;;;;7.40;0.80;;;11.90;1.00;;;;;;5032532;28;20963;-71
2023/12/05 09:56:28;;;;;;;4.80;1.00;;;11.80;1.00;;;;;;5032033;28;20478;-71
2023/12/05 09:58:54;;;;;;;5.50;1.20;;;11.90;1.00;;;;;;5032049;28;20901;-71
2023/12/05 10:01:22;;;;;;;4.50;0.70;;;11.60;1.00;;;;;;5029585;28;20391;-71
2023/12/05 10:03:57;;;;;;;5.20;1.10;;;11.10;1.00;;;;;;5032138;28;20391;-70
2023/12/05 10:06:25;;;;;;;6.50;0.90;;;11.20;1.00;;;;;;5032077;28;20978;-70
2023/12/05 10:08:52;;;;;;;5.07;0.77;;;11.30;1.00;;;;;;5031981;28;20387;-69
2023/12/05 10:11:20;;;;;;;5.07;0.82;;;11.30;1.00;;;;;;5024963;28;20895;-70
2023/12/05 10:13:46;;;;;;;6.40;0.70;;;10.40;1.00;;;;;;5012198;28;20405;-70
2023/12/05 10:16:13;;;;;;;4.60;1.00;;;9.50;1.00;;;;;;5012057;28;20559;-69
2023/12/05 10:18:40;;;;;;;5.23;0.83;;;9.70;1.00;;;;;;5025003;28;20492;-70
2023/12/05 10:21:05;;;;;;;5.00;1.00;;;9.80;1.00;;;;;;5024011;28;20401;-70
2023/12/05 10:23:32;;;;;;;4.70;0.90;;;10.20;1.00;;;;;;5018522;28;20394;-70
2023/12/05 10:25:57;;;;;;;6.30;1.00;;;10.80;1.00;;;;;;5016019;28;20427;-70
2023/12/05 10:28:23;;;;;;;4.90;0.65;;;11.20;1.00;;;;;;5020597;28;20426;-69
2023/12/05 10:30:49;;;;;;;5.70;0.70;;;10.40;1.00;;;;;;5016724;28;20832;-69
2023/12/05 10:33:16;;;;;;;6.30;1.10;;;9.80;1.00;;;;;;5029997;28;20430;-69
2023/12/05 10:35:44;;;;;;;5.97;0.82;;;9.60;1.00;;;;;;5031251;28;20473;-70
2023/12/05 10:38:10;;;;;;;6.30;0.80;;;9.10;1.00;;;;;;5031214;28;20411;-69
2023/12/05 10:40:49;;;;;;;6.93;0.90;;;9.20;1.00;;;;;;5031813;28;20449;-69
2023/12/05 10:43:16;;;;;;;5.97;0.60;;;8.90;1.00;;;;;;5030930;28;20902;-70
2023/12/05 10:45:42;;;;;;;4.70;0.80;;;8.70;1.00;;;;;;5030753;28;20810;-70
2023/12/05 10:48:07;;;;;;;4.20;0.80;;;8.80;1.00;;;;;;5012383;28;20392;-68
2023/12/05 10:50:33;;;;;;;4.93;0.98;;;9.50;1.00;;;;;;5013989;28;20386;-70
2023/12/05 10:53:01;;;;;;;5.30;0.70;;;10.30;1.00;;;;;;5019811;28;20395;-69
2023/12/05 10:55:27;;;;;;;4.40;0.70;;;10.80;1.00;;;;;;5031348;28;20405;-70
2023/12/05 10:57:53;;;;;;;7.27;0.90;;;11.30;1.00;;;;;;5025004;28;20970;-71
2023/12/05 11:00:19;;;;;;;4.50;0.70;;;11.40;1.00;;;;;;5030311;28;20405;-70
2023/12/05 11:02:45;;;;;;;5.05;0.68;;;11.50;1.00;;;;;;5030806;28;20391;-70
2023/12/05 11:05:12;;;;;;;5.97;1.00;;;11.40;1.00;;;;;;5030894;28;20394;-70
2023/12/05 11:07:38;;;;;;;4.78;0.70;;;11.40;1.00;;;;;;5024636;28;20453;-71
2023/12/05 11:10:04;;;;;;;4.70;0.83;;;11.40;1.00;;;;;;5026722;28;20392;-68
2023/12/05 11:12:30;;;;;;;4.60;0.80;;;10.90;1.00;;;;;;5017715;28;20894;-70
2023/12/05 11:14:58;;;;;;;4.90;0.80;;;10.90;1.00;;;;;;5015561;28;20391;-70
2023/12/05 11:17:32;;;;;;;6.28;1.40;;;10.60;1.00;;;;;;5010903;28;20397;-69
2023/12/05 11:20:22;;;;;;;5.30;1.38;;;10.40;1.00;;;;;;5014814;28;20433;-69
2023/12/05 11:23:09;;;;;;;6.00;1.10;;;10.30;1.00;;;;;;5025900;28;20398;-69
2023/12/05 11:26:00;;;;;;;5.60;1.50;;;9.90;1.00;;;;;;5022598;28;20745;-69
2023/12/05 11:28:58;;;;;;;6.43;0.95;;;9.60;1.00;;;;;;5029836;28;20871;-70
2023/12/05 11:31:51;;;;;;;7.88;2.08;;;9.40;1.00;;;;;;4990539;28;20409;-69
2023/12/05 11:34:19;;;;;;;5.40;1.30;;;9.60;1.00;;;;;;4991105;28;20403;-68
2023/12/05 11:37:16;;;;;;;5.78;1.27;;;9.70;1.00;;;;;;4990619;28;20414;-68
2023/12/05 11:39:42;;;;;;;5.70;0.80;;;9.80;1.00;;;;;;4990495;28;20867;-68
2023/12/05 11:42:14;;;;;;;4.40;0.70;;;9.70;1.00;;;;;;4991133;28;20387;-70
2023/12/05 11:44:41;;;;;;;4.90;1.00;;;9.50;1.00;;;;;;4991161;28;20405;-69
2023/12/05 11:47:22;;;;;;;6.53;1.30;;;9.70;1.00;;;;;;5015216;28;20789;-70
2023/12/05 11:49:54;;;;;;;5.80;1.10;;;9.60;1.00;;;;;;5025196;28;20957;-69
2023/12/05 11:52:20;;;;;;;5.55;1.00;;;9.60;1.00;;;;;;5009940;28;20409;-69
2023/12/05 11:54:48;;;;;;;5.60;1.10;;;9.80;1.00;;;;;;5010526;28;20459;-69
2023/12/05 11:57:18;;;;;;;6.90;1.30;;;9.90;1.00;;;;;;5009847;28;20474;-68
2023/12/05 11:59:45;;;;;;;5.70;1.00;;;9.90;1.00;;;;;;5010073;28;20397;-70
2023/12/05 12:02:13;;;;;;;6.60;1.25;;;10.00;1.00;;;;;;5008959;28;20429;-69
2023/12/05 12:04:39;;;;;;;5.40;1.10;;;9.80;1.00;;;;;;5011198;28;20443;-69
2023/12/05 12:07:05;;;;;;;5.60;1.00;;;9.90;1.00;;;;;;5018732;28;20526;-69
2023/12/05 12:09:37;;;;;;;5.70;0.88;;;9.80;1.00;;;;;;5030080;28;20490;-69
2023/12/05 12:12:03;;;;;;;5.13;1.10;;;9.80;1.00;;;;;;5017718;28;20403;-69
2023/12/05 12:14:30;;;;;;;5.10;0.90;;;9.70;1.00;;;;;;5028011;28;20549;-69
2023/12/05 12:16:57;;;;;;;5.78;0.82;;;9.50;1.00;;;;;;5015442;28;20408;-69
2023/12/05 12:19:23;;;;;;;5.30;1.20;;;9.70;1.00;;;;;;5015376;28;20395;-69
2023/12/05 12:21:49;;;;;;;5.00;0.98;;;10.00;1.00;;;;;;5029578;28;20410;-69
2023/12/05 12:24:19;;;;;;;4.40;0.88;;;9.90;1.00;;;;;;5019706;28;20397;-68
2023/12/05 12:26:56;;;;;;;4.70;0.80;;;10.20;1.00;;;;;;5009734;28;20857;-69
2023/12/05 12:29:23;;;;;;;4.57;0.70;;;10.10;1.00;;;;;;5009722;28;20492;-70
2023/12/05 12:32:04;;;;;;;4.73;0.60;;;9.90;1.00;;;;;;5009158;28;20421;-70
2023/12/05 12:34:30;;;;;;;4.50;0.60;;;9.60;1.00;;;;;;5009379;28;20387;-70
2023/12/05 12:36:57;;;;;;;5.40;0.80;;;9.60;1.00;;;;;;5029430;28;20409;-68
2023/12/05 12:39:25;;;;;;;4.50;0.90;;;9.70;1.00;;;;;;5029075;28;20758;-69
2023/12/05 12:41:51;;;;;;;3.90;0.40;;;10.20;1.00;;;;;;5029040;28;20733;-69
2023/12/05 12:44:17;;;;;;;4.00;0.55;;;10.20;1.00;;;;;;5029540;28;20410;-68
2023/12/05 12:46:43;;;;;;;4.65;0.95;;;10.20;1.00;;;;;;5029155;28;20537;-69
2023/12/05 12:49:09;;;;;;;4.10;0.50;;;10.20;1.00;;;;;;5029447;28;20387;-68
2023/12/05 12:51:38;;;;;;;4.90;0.60;;;10.20;1.00;;;;;;5029879;28;20405;-69
2023/12/05 12:54:05;;;;;;;4.20;0.50;;;10.20;1.00;;;;;;5021548;28;20479;-68
2023/12/05 12:56:35;;;;;;;4.28;0.60;;;10.30;1.00;;;;;;5009149;28;20405;-68
2023/12/05 12:59:04;;;;;;;5.55;0.65;;;10.30;1.00;;;;;;5009344;28;20393;-69
2023/12/05 13:01:32;;;;;;;4.60;0.60;;;10.50;1.00;;;;;;5009439;28;20749;-69
2023/12/05 13:03:58;;;;;;;3.92;0.50;;;10.40;1.00;;;;;;5009504;28;20403;-70
2023/12/05 13:06:24;;;;;;;4.20;0.45;;;10.20;1.00;;;;;;5018248;28;20419;-69